createdAt,value
2022-07-29T00:02:26.484Z,99.90
2022-07-29T00:04:53.234Z,99.90
2022-07-29T00:07:19.964Z,99.90
2022-07-29T00:09:51.550Z,99.90
2022-07-29T00:12:21.489Z,99.90
2022-07-29T00:14:56.977Z,99.90
2022-07-29T00:17:26.795Z,99.90
2022-07-29T00:19:53.526Z,99.90
2022-07-29T00:22:20.537Z,99.90
2022-07-29T00:24:50.302Z,99.90
2022-07-29T00:27:17.640Z,99.90
2022-07-29T00:29:44.437Z,99.90
2022-07-29T00:32:11.145Z,99.90
2022-07-29T00:34:56.584Z,99.90
2022-07-29T00:37:23.292Z,99.90
2022-07-29T00:39:50.045Z,99.90
2022-07-29T00:42:17.562Z,99.90
2022-07-29T00:44:44.655Z,99.90
2022-07-29T00:47:12.089Z,99.90
2022-07-29T00:49:39.890Z,99.90
2022-07-29T00:52:07.247Z,99.90
2022-07-29T00:54:34.460Z,99.90
2022-07-29T00:57:01.535Z,99.90
2022-07-29T00:59:35.007Z,99.90
2022-07-29T01:02:03.411Z,99.90
2022-07-29T01:04:30.880Z,99.90
2022-07-29T01:06:57.726Z,99.90
2022-07-29T01:09:42.061Z,99.90
2022-07-29T01:12:11.424Z,99.90
2022-07-29T01:14:38.572Z,99.90
2022-07-29T01:17:21.711Z,99.90
2022-07-29T01:19:48.356Z,99.90
2022-07-29T01:22:27.285Z,99.90
2022-07-29T01:25:12.869Z,99.90
2022-07-29T01:27:45.739Z,99.90
2022-07-29T01:30:13.253Z,99.90
2022-07-29T01:32:43.792Z,99.90
2022-07-29T01:35:18.127Z,99.90
2022-07-29T01:37:57.161Z,99.90
2022-07-29T01:40:33.106Z,99.90
2022-07-29T01:43:01.005Z,99.90
2022-07-29T01:45:33.046Z,99.90
2022-07-29T01:48:03.157Z,99.90
2022-07-29T01:50:34.048Z,99.90
2022-07-29T01:53:02.003Z,99.90
2022-07-29T01:55:39.962Z,99.90
2022-07-29T01:58:07.825Z,99.90
2022-07-29T02:00:35.357Z,99.90
2022-07-29T02:03:04.952Z,99.90
2022-07-29T02:05:33.141Z,99.90
2022-07-29T02:08:01.127Z,99.90
2022-07-29T02:10:29.472Z,99.90
2022-07-29T02:12:57.319Z,99.90
2022-07-29T02:15:28.853Z,99.90
2022-07-29T02:18:16.534Z,99.90
2022-07-29T02:20:47.964Z,99.90
2022-07-29T02:23:18.873Z,99.90
2022-07-29T02:25:46.259Z,99.90
2022-07-29T02:28:14.126Z,99.90
2022-07-29T02:30:42.721Z,99.90
2022-07-29T02:33:10.906Z,99.90
2022-07-29T02:35:38.096Z,99.90
2022-07-29T02:38:23.551Z,99.90
2022-07-29T02:40:51.739Z,99.90
2022-07-29T02:43:18.700Z,99.90
2022-07-29T02:45:46.071Z,99.90
2022-07-29T02:48:21.898Z,99.90
2022-07-29T02:50:54.329Z,99.90
2022-07-29T02:53:23.573Z,99.90
2022-07-29T02:55:55.398Z,99.90
2022-07-29T02:58:27.305Z,99.90
2022-07-29T03:00:54.377Z,99.90
2022-07-29T03:03:22.254Z,99.90
2022-07-29T03:05:49.063Z,99.90
2022-07-29T03:08:16.221Z,99.90
2022-07-29T03:10:44.805Z,99.90
2022-07-29T03:13:13.390Z,99.90
2022-07-29T03:15:40.229Z,99.90
2022-07-29T03:18:07.119Z,99.90
2022-07-29T03:20:33.875Z,99.90
2022-07-29T03:23:00.615Z,99.90
2022-07-29T03:25:28.256Z,99.90
2022-07-29T03:27:55.102Z,99.90
2022-07-29T03:30:22.525Z,99.90
2022-07-29T03:32:50.047Z,99.90
2022-07-29T03:35:20.221Z,99.90
2022-07-29T03:37:47.364Z,99.90
2022-07-29T03:40:18.314Z,99.90
2022-07-29T03:42:45.585Z,99.90
2022-07-29T03:45:13.813Z,99.90
2022-07-29T03:47:49.797Z,99.90
2022-07-29T03:50:19.284Z,99.90
2022-07-29T03:52:46.423Z,99.90
2022-07-29T03:55:13.472Z,99.90
2022-07-29T03:57:40.597Z,99.90
2022-07-29T04:00:07.824Z,99.90
2022-07-29T04:02:34.896Z,99.90
2022-07-29T04:05:01.801Z,99.90
2022-07-29T04:07:28.805Z,99.90
2022-07-29T04:09:55.509Z,99.90
2022-07-29T04:12:22.229Z,99.90
2022-07-29T04:14:49.738Z,99.90
2022-07-29T04:17:16.482Z,99.90
2022-07-29T04:19:43.266Z,99.90
2022-07-29T04:22:09.935Z,99.90
2022-07-29T04:24:36.782Z,99.90
2022-07-29T04:27:03.467Z,99.90
2022-07-29T04:29:30.182Z,99.90
2022-07-29T04:31:56.858Z,99.90
2022-07-29T04:34:23.652Z,99.90
2022-07-29T04:36:55.169Z,99.90
2022-07-29T04:39:23.229Z,99.90
2022-07-29T04:41:51.242Z,99.90
2022-07-29T04:44:19.794Z,99.90
2022-07-29T04:46:46.946Z,99.90
2022-07-29T04:49:14.205Z,99.90
2022-07-29T04:51:41.069Z,99.90
2022-07-29T04:54:07.742Z,99.90
2022-07-29T04:56:34.490Z,99.90
2022-07-29T04:59:01.300Z,99.90
2022-07-29T05:01:28.016Z,99.90
2022-07-29T05:03:59.861Z,99.90
2022-07-29T05:06:27.116Z,99.90
2022-07-29T05:08:53.788Z,99.90
2022-07-29T05:11:22.425Z,99.90
2022-07-29T05:13:51.021Z,99.90
2022-07-29T05:16:17.762Z,99.90
2022-07-29T05:18:44.638Z,99.90
2022-07-29T05:21:11.413Z,99.90
2022-07-29T05:23:38.072Z,99.90
2022-07-29T05:26:04.851Z,99.90
2022-07-29T05:28:34.256Z,99.90
2022-07-29T05:31:01.075Z,99.90
2022-07-29T05:33:35.346Z,99.90
2022-07-29T05:36:03.073Z,99.90
2022-07-29T05:38:29.770Z,99.90
2022-07-29T05:40:57.581Z,99.90
2022-07-29T05:43:24.268Z,99.90
2022-07-29T05:45:51.107Z,99.90
2022-07-29T05:48:18.032Z,99.90
2022-07-29T05:50:44.787Z,99.90
2022-07-29T05:53:20.091Z,99.90
2022-07-29T05:55:47.757Z,99.90
2022-07-29T05:58:14.546Z,99.90
2022-07-29T06:00:41.451Z,99.90
2022-07-29T06:03:08.131Z,99.90
2022-07-29T06:05:34.893Z,99.90
2022-07-29T06:08:01.692Z,99.90
2022-07-29T06:10:28.380Z,99.90
2022-07-29T06:12:55.047Z,99.90
2022-07-29T06:15:21.802Z,99.90
2022-07-29T06:17:59.685Z,99.90
2022-07-29T06:20:30.789Z,99.90
2022-07-29T06:22:57.772Z,99.90
2022-07-29T06:25:24.418Z,99.90
2022-07-29T06:27:51.132Z,99.90
2022-07-29T06:30:17.861Z,99.90
2022-07-29T06:32:44.560Z,99.90
2022-07-29T06:35:39.149Z,99.90
2022-07-29T06:37:59.730Z,99.90
2022-07-29T06:40:45.291Z,99.90
2022-07-29T06:43:11.992Z,99.90
2022-07-29T06:45:42.156Z,99.90
2022-07-29T06:48:09.726Z,99.90
2022-07-29T06:50:36.525Z,99.90
2022-07-29T06:53:03.504Z,99.90
2022-07-29T06:55:30.182Z,99.90
2022-07-29T06:57:56.946Z,99.90
2022-07-29T07:00:23.660Z,99.90
2022-07-29T07:02:50.417Z,99.90
2022-07-29T07:05:17.178Z,99.90
2022-07-29T07:07:43.838Z,99.90
2022-07-29T07:10:10.651Z,99.90
2022-07-29T07:12:37.320Z,99.90
2022-07-29T07:15:04.250Z,99.90
2022-07-29T07:17:30.960Z,99.90
2022-07-29T07:19:57.604Z,99.90
2022-07-29T07:22:24.467Z,99.90
2022-07-29T07:24:51.258Z,99.90
2022-07-29T07:27:17.975Z,99.90
2022-07-29T07:29:44.731Z,99.90
2022-07-29T07:32:11.493Z,99.90
2022-07-29T07:34:39.160Z,99.90
2022-07-29T07:37:06.326Z,99.90
2022-07-29T07:39:33.034Z,99.90
2022-07-29T07:41:59.930Z,99.90
2022-07-29T07:44:27.036Z,99.90
2022-07-29T07:46:54.674Z,99.90
2022-07-29T07:49:21.675Z,99.90
2022-07-29T07:51:50.954Z,99.90
2022-07-29T07:54:18.711Z,99.90
2022-07-29T07:56:53.137Z,99.90
2022-07-29T07:59:20.254Z,99.90
2022-07-29T08:01:47.830Z,99.90
2022-07-29T08:04:27.289Z,99.90
2022-07-29T08:06:55.303Z,99.90
2022-07-29T08:09:29.445Z,99.90
2022-07-29T08:11:57.549Z,99.90
2022-07-29T08:14:24.594Z,99.90
2022-07-29T08:16:52.553Z,99.90
2022-07-29T08:19:19.504Z,99.90
2022-07-29T08:21:46.400Z,99.90
2022-07-29T08:24:31.902Z,99.90
2022-07-29T08:26:58.748Z,99.90
2022-07-29T08:29:25.513Z,99.90
2022-07-29T08:31:52.448Z,99.90
2022-07-29T08:34:19.330Z,99.90
2022-07-29T08:36:54.450Z,99.90
2022-07-29T08:39:21.265Z,99.90
2022-07-29T08:41:57.242Z,99.90
2022-07-29T08:44:31.034Z,99.90
2022-07-29T08:46:58.191Z,99.90
2022-07-29T08:49:25.114Z,99.90
2022-07-29T08:51:52.529Z,99.90
2022-07-29T08:54:19.645Z,99.90
2022-07-29T08:56:49.603Z,99.90
2022-07-29T08:59:17.072Z,99.90
2022-07-29T09:01:47.877Z,99.90
2022-07-29T09:04:15.426Z,99.90
2022-07-29T09:06:44.717Z,99.90
2022-07-29T09:09:11.817Z,99.90
2022-07-29T09:11:38.605Z,99.90
2022-07-29T09:14:05.429Z,99.90
2022-07-29T09:17:00.851Z,99.90
2022-07-29T09:19:32.024Z,99.90
2022-07-29T09:21:59.657Z,99.90
2022-07-29T09:24:47.061Z,99.90
2022-07-29T09:27:22.034Z,99.90
2022-07-29T09:30:11.428Z,99.90
2022-07-29T09:32:57.178Z,99.90
2022-07-29T09:35:25.155Z,99.90
2022-07-29T09:37:51.919Z,99.90
2022-07-29T09:40:22.874Z,99.90
2022-07-29T09:42:49.838Z,99.90
2022-07-29T09:45:30.263Z,99.90
2022-07-29T09:48:00.040Z,99.90
2022-07-29T09:50:37.243Z,99.90
2022-07-29T09:53:03.954Z,99.90
2022-07-29T09:55:30.685Z,99.90
2022-07-29T09:58:18.458Z,99.90
2022-07-29T10:00:46.282Z,99.90
2022-07-29T10:03:14.153Z,99.90
2022-07-29T10:05:41.862Z,99.90
2022-07-29T10:08:09.842Z,99.90
2022-07-29T10:10:37.964Z,99.90
2022-07-29T10:13:15.022Z,99.90
2022-07-29T10:15:45.339Z,99.90
2022-07-29T10:18:12.975Z,99.90
2022-07-29T10:20:40.666Z,99.90
2022-07-29T10:23:07.403Z,99.90
2022-07-29T10:25:34.272Z,99.90
2022-07-29T10:28:00.976Z,99.90
2022-07-29T10:30:28.369Z,99.90
2022-07-29T10:33:12.426Z,99.90
2022-07-29T10:35:45.175Z,99.90
2022-07-29T10:38:17.269Z,99.90
2022-07-29T10:41:10.983Z,99.90
2022-07-29T10:43:39.170Z,99.90
2022-07-29T10:46:09.405Z,99.90
2022-07-29T10:48:57.619Z,99.90
2022-07-29T10:51:24.712Z,99.90
2022-07-29T10:53:53.544Z,99.90
2022-07-29T10:56:30.773Z,99.90
2022-07-29T10:59:16.359Z,99.90
2022-07-29T11:01:46.593Z,99.90
2022-07-29T11:04:37.338Z,99.90
2022-07-29T11:07:08.008Z,99.90
2022-07-29T11:09:37.484Z,99.90
2022-07-29T11:12:25.325Z,99.90
2022-07-29T11:14:53.350Z,99.90
2022-07-29T11:17:20.436Z,99.90
2022-07-29T11:19:52.246Z,99.90
2022-07-29T11:22:35.194Z,99.90
2022-07-29T11:25:16.766Z,99.90
2022-07-29T11:27:44.883Z,99.90
2022-07-29T11:30:13.416Z,99.90
2022-07-29T11:32:48.531Z,99.90
2022-07-29T11:35:19.070Z,99.90
2022-07-29T11:37:52.161Z,99.90
2022-07-29T11:40:22.953Z,99.90
2022-07-29T11:42:52.215Z,99.90
2022-07-29T11:45:43.113Z,99.90
2022-07-29T11:48:29.444Z,99.90
2022-07-29T11:50:54.923Z,99.90
2022-07-29T11:53:21.792Z,99.90
2022-07-29T11:55:55.361Z,99.90
2022-07-29T12:01:13.815Z,99.90
2022-07-29T12:03:40.943Z,99.90
2022-07-29T12:06:14.861Z,99.90
2022-07-29T12:08:43.574Z,99.90
2022-07-29T12:11:17.770Z,99.90
2022-07-29T12:13:47.659Z,99.90
2022-07-29T12:16:16.555Z,99.90
2022-07-29T12:19:10.998Z,99.90
2022-07-29T12:21:53.774Z,99.90
2022-07-29T12:24:26.957Z,99.90
2022-07-29T12:27:00.762Z,99.90
2022-07-29T12:29:35.584Z,99.90
2022-07-29T12:32:03.787Z,99.90
2022-07-29T12:34:31.257Z,99.90
2022-07-29T12:36:57.970Z,99.90
2022-07-29T12:39:27.453Z,99.90
2022-07-29T12:42:03.984Z,99.90
2022-07-29T12:44:50.812Z,99.90
2022-07-29T12:47:19.087Z,99.90
2022-07-29T12:49:46.480Z,99.90
2022-07-29T12:52:32.912Z,99.90
2022-07-29T12:54:59.909Z,99.90
2022-07-29T12:57:26.883Z,99.90
2022-07-29T13:00:00.338Z,99.90
2022-07-29T13:02:27.342Z,99.90
2022-07-29T13:04:58.800Z,99.90
2022-07-29T13:07:54.324Z,99.90
2022-07-29T13:10:24.573Z,99.90
2022-07-29T13:13:14.619Z,99.90
2022-07-29T13:15:42.931Z,99.90
2022-07-29T13:18:31.513Z,99.90
2022-07-29T13:21:11.628Z,99.90
2022-07-29T13:23:38.583Z,99.90
2022-07-29T13:26:09.228Z,99.90
2022-07-29T13:28:35.962Z,99.90
2022-07-29T13:31:02.906Z,99.90
2022-07-29T13:33:31.171Z,99.90
2022-07-29T13:35:58.011Z,99.90
2022-07-29T13:38:31.155Z,99.90
2022-07-29T13:40:58.360Z,99.90
2022-07-29T13:43:25.016Z,99.90
2022-07-29T13:45:51.739Z,99.90
2022-07-29T13:48:18.560Z,99.90
2022-07-29T13:50:46.571Z,99.90
2022-07-29T13:53:17.806Z,99.90
2022-07-29T13:55:45.101Z,99.90
2022-07-29T13:58:11.916Z,99.90
2022-07-29T14:00:38.709Z,99.90
2022-07-29T14:03:05.385Z,99.90
2022-07-29T14:05:32.044Z,99.80
2022-07-29T14:07:58.760Z,99.90
2022-07-29T14:10:25.523Z,99.70
2022-07-29T14:12:52.291Z,99.20
2022-07-29T14:15:19.084Z,99.40
2022-07-29T14:17:45.746Z,99.20
2022-07-29T14:20:12.420Z,98.70
2022-07-29T14:22:42.502Z,97.60
2022-07-29T14:25:11.889Z,99.90
2022-07-29T14:27:42.408Z,99.90
2022-07-29T14:30:09.762Z,99.90
2022-07-29T14:32:36.496Z,99.90
2022-07-29T14:35:03.410Z,99.00
2022-07-29T14:37:39.865Z,99.50
2022-07-29T14:40:07.337Z,99.50
2022-07-29T14:42:34.079Z,99.90
2022-07-29T14:45:01.152Z,99.90
2022-07-29T14:47:27.912Z,99.90
2022-07-29T14:49:54.638Z,98.30
2022-07-29T14:52:21.380Z,99.80
2022-07-29T14:54:48.098Z,99.50
2022-07-29T14:57:14.779Z,99.90
2022-07-29T14:59:41.455Z,99.90
2022-07-29T15:02:08.200Z,99.10
2022-07-29T15:04:35.283Z,98.90
2022-07-29T15:07:02.929Z,99.40
2022-07-29T15:09:29.661Z,99.90
2022-07-29T15:11:56.773Z,99.90
2022-07-29T15:14:23.922Z,99.90
2022-07-29T15:16:52.799Z,98.20
2022-07-29T15:19:20.038Z,99.20
2022-07-29T15:21:48.848Z,98.50
2022-07-29T15:24:19.640Z,99.00
2022-07-29T15:26:47.001Z,96.50
2022-07-29T15:29:14.349Z,96.40
2022-07-29T15:31:41.395Z,97.20
2022-07-29T15:34:08.225Z,96.40
2022-07-29T15:36:51.408Z,96.40
2022-07-29T15:39:19.191Z,97.30
2022-07-29T15:41:45.908Z,96.50
2022-07-29T15:44:12.582Z,96.50
2022-07-29T15:46:57.965Z,96.70
2022-07-29T15:49:31.393Z,97.20
2022-07-29T15:52:15.787Z,97.10
2022-07-29T15:54:42.481Z,97.30
2022-07-29T15:57:10.166Z,98.10
2022-07-29T15:59:36.861Z,97.70
2022-07-29T16:02:03.829Z,98.30
2022-07-29T16:04:31.938Z,98.30
2022-07-29T16:06:59.155Z,98.90
2022-07-29T16:09:26.412Z,99.90
2022-07-29T16:11:54.032Z,99.90
2022-07-29T16:14:20.942Z,99.60
2022-07-29T16:16:48.484Z,99.90
2022-07-29T16:19:15.374Z,99.90
2022-07-29T16:21:42.283Z,99.90
2022-07-29T16:24:09.085Z,99.90
2022-07-29T16:26:37.772Z,99.90
2022-07-29T16:29:04.958Z,99.90
2022-07-29T16:31:31.804Z,99.90
2022-07-29T16:33:58.485Z,99.90
2022-07-29T16:36:27.385Z,99.90
2022-07-29T16:38:54.160Z,99.90
2022-07-29T16:41:20.912Z,99.90
2022-07-29T16:43:47.647Z,99.90
2022-07-29T16:46:18.516Z,99.90
2022-07-29T16:48:46.010Z,99.90
2022-07-29T16:51:14.232Z,99.90
2022-07-29T16:53:41.490Z,99.90
2022-07-29T16:56:12.620Z,99.90
2022-07-29T16:58:43.575Z,99.90
2022-07-29T17:01:11.310Z,99.90
2022-07-29T17:04:00.268Z,99.90
2022-07-29T17:06:30.625Z,99.90
2022-07-29T17:08:57.302Z,99.90
2022-07-29T17:11:51.677Z,99.90
2022-07-29T17:14:11.137Z,99.90
2022-07-29T17:16:38.022Z,99.90
2022-07-29T17:19:04.747Z,99.90
2022-07-29T17:21:31.501Z,99.90
2022-07-29T17:23:59.334Z,99.90
2022-07-29T17:26:28.179Z,99.90
2022-07-29T17:28:55.352Z,99.90
2022-07-29T17:31:22.291Z,99.90
2022-07-29T17:33:49.082Z,99.90
2022-07-29T17:36:24.834Z,99.90
2022-07-29T17:38:52.955Z,99.90
2022-07-29T17:41:19.938Z,99.90
2022-07-29T17:43:46.675Z,99.90
2022-07-29T17:46:13.649Z,99.90
2022-07-29T17:48:41.391Z,99.90
2022-07-29T17:51:08.246Z,99.90
2022-07-29T17:53:35.085Z,99.90
2022-07-29T17:56:02.059Z,99.90
2022-07-29T17:58:28.704Z,99.90
2022-07-29T18:00:55.408Z,99.90
2022-07-29T18:03:22.248Z,99.90
2022-07-29T18:05:49.470Z,99.90
2022-07-29T18:08:16.990Z,99.90
2022-07-29T18:10:44.855Z,99.90
2022-07-29T18:13:16.447Z,99.90
2022-07-29T18:15:45.032Z,99.90
2022-07-29T18:18:12.887Z,99.90
2022-07-29T18:20:39.986Z,99.90
2022-07-29T18:23:06.740Z,99.90
2022-07-29T18:25:33.430Z,99.90
2022-07-29T18:28:00.851Z,99.90
2022-07-29T18:30:28.460Z,99.90
2022-07-29T18:33:19.819Z,99.90
2022-07-29T18:35:41.896Z,99.90
2022-07-29T18:38:08.567Z,99.90
2022-07-29T18:40:35.377Z,99.90
2022-07-29T18:43:02.085Z,99.90
2022-07-29T18:45:28.994Z,99.90
2022-07-29T18:47:56.534Z,99.90
2022-07-29T18:50:29.004Z,99.90
2022-07-29T18:52:58.317Z,99.90
2022-07-29T18:55:25.675Z,99.90
2022-07-29T18:57:54.139Z,99.90
2022-07-29T19:00:23.842Z,99.90
2022-07-29T19:02:51.014Z,99.90
2022-07-29T19:05:18.046Z,99.90
2022-07-29T19:07:44.720Z,99.90
2022-07-29T19:10:12.256Z,99.90
2022-07-29T19:12:39.198Z,99.90
2022-07-29T19:15:07.532Z,99.90
2022-07-29T19:17:34.284Z,99.90
2022-07-29T19:20:01.078Z,99.90
2022-07-29T19:22:27.798Z,99.90
2022-07-29T19:24:54.545Z,99.90
2022-07-29T19:27:21.302Z,99.90
2022-07-29T19:29:48.131Z,99.90
2022-07-29T19:32:25.398Z,99.90
2022-07-29T19:35:10.960Z,99.90
2022-07-29T19:37:37.676Z,99.90
2022-07-29T19:40:05.158Z,99.90
2022-07-29T19:42:31.882Z,99.90
2022-07-29T19:44:58.823Z,99.90
2022-07-29T19:47:25.707Z,99.90
2022-07-29T19:49:52.395Z,99.90
2022-07-29T19:52:19.089Z,99.90
2022-07-29T19:54:45.766Z,99.90
2022-07-29T19:57:12.462Z,99.90
2022-07-29T19:59:41.018Z,99.90
2022-07-29T20:02:10.861Z,99.90
2022-07-29T20:04:38.627Z,99.90
2022-07-29T20:07:05.733Z,99.90
2022-07-29T20:09:32.431Z,99.90
2022-07-29T20:11:59.188Z,99.90
2022-07-29T20:14:25.893Z,99.90
2022-07-29T20:16:54.401Z,99.90
2022-07-29T20:19:21.368Z,99.90
2022-07-29T20:21:48.215Z,99.90
2022-07-29T20:24:14.994Z,99.90
2022-07-29T20:26:41.693Z,99.90
2022-07-29T20:29:08.477Z,99.90
2022-07-29T20:31:35.239Z,99.90
2022-07-29T20:34:02.045Z,99.90
2022-07-29T20:36:28.881Z,99.90
2022-07-29T20:38:55.846Z,99.90
2022-07-29T20:41:22.856Z,99.90
2022-07-29T20:43:52.857Z,99.90
2022-07-29T20:46:19.648Z,99.90
2022-07-29T20:48:47.200Z,99.90
2022-07-29T20:51:14.239Z,99.90
2022-07-29T20:53:41.150Z,99.90
2022-07-29T20:56:08.398Z,99.90
2022-07-29T20:58:36.375Z,99.90
2022-07-29T21:01:03.752Z,99.90
2022-07-29T21:03:30.644Z,99.90
2022-07-29T21:05:57.407Z,99.90
2022-07-29T21:08:24.173Z,99.90
2022-07-29T21:10:50.893Z,99.90
2022-07-29T21:13:17.688Z,99.90
2022-07-29T21:15:48.272Z,99.90
2022-07-29T21:18:30.268Z,99.90
2022-07-29T21:20:59.098Z,99.90
2022-07-29T21:23:26.375Z,99.90
2022-07-29T21:25:54.152Z,99.90
2022-07-29T21:28:26.928Z,99.90
2022-07-29T21:30:54.347Z,99.90
2022-07-29T21:33:21.104Z,99.90
2022-07-29T21:38:35.245Z,99.90
2022-07-29T21:41:02.330Z,99.90
2022-07-29T21:43:29.226Z,99.90
2022-07-29T21:45:56.939Z,99.90
2022-07-29T21:48:24.461Z,99.90
2022-07-29T21:50:51.760Z,99.90
2022-07-29T21:53:21.995Z,99.90
2022-07-29T21:55:54.275Z,99.90
2022-07-29T21:58:22.899Z,99.90
2022-07-29T22:00:49.643Z,99.90
2022-07-29T22:03:16.630Z,99.90
2022-07-29T22:05:43.513Z,99.90
2022-07-29T22:08:10.283Z,99.90
2022-07-29T22:10:37.039Z,99.90
2022-07-29T22:13:03.900Z,99.90
2022-07-29T22:15:31.148Z,99.90
2022-07-29T22:17:57.909Z,99.90
2022-07-29T22:20:24.816Z,99.90
2022-07-29T22:22:51.829Z,99.90
2022-07-29T22:25:18.533Z,99.90
2022-07-29T22:27:45.279Z,99.90
2022-07-29T22:30:12.607Z,99.90
2022-07-29T22:32:39.438Z,99.90
2022-07-29T22:35:06.516Z,99.90
2022-07-29T22:37:35.420Z,99.90
2022-07-29T22:40:02.138Z,99.90
2022-07-29T22:42:28.876Z,99.90
2022-07-29T22:44:55.550Z,99.90
2022-07-29T22:47:38.707Z,99.90
2022-07-29T22:50:09.083Z,99.90
2022-07-29T22:52:35.750Z,99.90
2022-07-29T22:55:02.977Z,99.90
2022-07-29T22:57:29.891Z,99.90
2022-07-29T22:59:56.615Z,99.90
2022-07-29T23:02:23.280Z,99.90
2022-07-29T23:04:49.949Z,99.90
2022-07-29T23:07:18.950Z,99.90
2022-07-29T23:09:45.646Z,99.90
2022-07-29T23:12:12.344Z,99.90
2022-07-29T23:14:39.035Z,99.90
2022-07-29T23:17:05.900Z,99.90
2022-07-29T23:19:32.577Z,99.90
2022-07-29T23:21:59.358Z,99.90
2022-07-29T23:24:26.029Z,99.90
2022-07-29T23:26:52.782Z,99.90
2022-07-29T23:29:19.465Z,99.90
2022-07-29T23:31:48.146Z,99.90
2022-07-29T23:34:15.113Z,99.90
2022-07-29T23:36:42.382Z,99.90
2022-07-29T23:39:11.372Z,99.90
2022-07-29T23:41:38.410Z,99.90
2022-07-29T23:44:05.242Z,99.90
2022-07-29T23:46:32.012Z,99.90
2022-07-29T23:48:58.778Z,99.90
2022-07-29T23:51:25.548Z,99.90
2022-07-29T23:53:53.195Z,99.90
2022-07-29T23:56:20.322Z,99.90
2022-07-29T23:58:47.000Z,99.90
